Time;durP1;ratioP1;P1;durP2;ratioP2;P2;SDS_P1;SDS_P2;PMS_P1;PMS_P2;Temp;Humidity;BMP_temperature;BMP_pressure;BME280_temperature;BME280_humidity;BME280_pressure;Samples;Min_cycle;Max_cycle;Signal;HPM_P1;HPM_P2
2022/09/09 00:02:15;;;;;;;5.97;1.67;;;;;;;22.55;43.58;99040.50;5013717;28;20057;-78
2022/09/09 00:04:40;;;;;;;5.28;1.70;;;;;;;22.45;43.43;99032.84;5016735;28;20454;-77
2022/09/09 00:07:26;;;;;;;3.78;1.70;;;;;;;22.48;43.45;99048.44;5035402;28;20036;-77
2022/09/09 00:09:57;;;;;;;3.25;1.70;;;;;;;22.45;43.50;99045.31;5005083;28;20070;-76
2022/09/09 00:12:31;;;;;;;5.07;2.25;;;;;;;22.43;43.28;99044.69;5037932;28;20033;-84
2022/09/09 00:15:04;;;;;;;4.07;1.75;;;;;;;22.38;42.98;99045.25;5032660;28;20041;-78
2022/09/09 00:17:35;;;;;;;7.80;1.80;;;;;;;22.39;43.14;99055.69;4999110;28;20044;-77
2022/09/09 00:20:35;;;;;;;2.55;1.42;;;;;;;22.36;43.02;99053.41;4999679;28;20033;-78
2022/09/09 00:23:24;;;;;;;3.33;1.65;;;;;;;22.34;43.19;99051.94;4971830;28;20474;-79
2022/09/09 00:26:01;;;;;;;3.25;1.67;;;;;;;22.34;43.18;99042.09;4933730;29;20053;-76
2022/09/09 00:28:30;;;;;;;6.93;1.90;;;;;;;22.36;43.86;99044.59;4917899;29;20046;-77
2022/09/09 00:30:57;;;;;;;2.88;1.65;;;;;;;22.38;43.72;99043.41;4918796;29;20463;-78
2022/09/09 00:33:23;;;;;;;3.55;1.60;;;;;;;22.38;43.39;99047.91;4902041;29;20546;-76
2022/09/09 00:35:56;;;;;;;5.20;2.05;;;;;;;22.35;43.48;99046.44;4917565;29;20028;-78
2022/09/09 00:38:33;;;;;;;5.50;1.90;;;;;;;22.31;43.63;99042.50;4901898;29;20456;-77
2022/09/09 00:41:26;;;;;;;3.90;1.75;;;;;;;22.33;43.66;99047.63;4901766;29;20090;-75
2022/09/09 00:44:02;;;;;;;7.25;1.92;;;;;;;22.39;44.35;99041.56;4901850;29;20043;-74
2022/09/09 00:46:48;;;;;;;4.68;1.70;;;;;;;22.44;43.76;99049.81;4917435;29;20078;-75
2022/09/09 00:49:32;;;;;;;11.18;1.90;;;;;;;22.44;43.35;99054.28;4933360;29;20078;-74
2022/09/09 00:52:25;;;;;;;4.28;2.08;;;;;;;22.46;43.34;99052.28;4933290;29;20090;-76
2022/09/09 00:55:01;;;;;;;4.13;1.95;;;;;;;22.46;43.22;99046.97;4933607;29;20454;-75
2022/09/09 00:57:28;;;;;;;3.15;1.55;;;;;;;22.46;43.04;99036.34;4917401;29;20130;-77
2022/09/09 01:00:19;;;;;;;3.42;1.73;;;;;;;22.48;42.80;99034.31;4917604;29;20043;-77
2022/09/09 01:02:54;;;;;;;3.85;1.80;;;;;;;22.48;42.92;99035.13;4976357;28;20041;-76
2022/09/09 01:05:27;;;;;;;5.32;1.60;;;;;;;22.49;42.95;99030.66;5032254;28;20050;-78
2022/09/09 01:07:52;;;;;;;2.47;1.55;;;;;;;22.44;42.60;99044.50;5012875;28;20044;-76
2022/09/09 01:10:26;;;;;;;3.97;1.70;;;;;;;22.40;42.83;99032.56;5013044;28;20050;-76
2022/09/09 01:12:51;;;;;;;2.20;1.70;;;;;;;22.43;42.52;99037.53;4998697;28;20056;-77
2022/09/09 01:15:21;;;;;;;3.35;1.85;;;;;;;22.41;42.40;99036.91;4998568;28;20409;-77
2022/09/09 01:17:52;;;;;;;4.13;1.60;;;;;;;22.43;42.15;99040.19;5014111;28;20083;-76
2022/09/09 01:20:17;;;;;;;3.13;1.98;;;;;;;22.45;42.16;99045.31;5014830;28;20049;-76
2022/09/09 01:22:59;;;;;;;2.67;1.58;;;;;;;22.43;41.79;99050.00;5032607;28;20025;-74
2022/09/09 01:25:49;;;;;;;4.60;1.70;;;;;;;22.40;42.19;99049.34;5014621;28;20041;-75
2022/09/09 01:28:16;;;;;;;3.45;1.67;;;;;;;22.42;41.67;99049.16;5031297;28;20022;-75
2022/09/09 01:30:42;;;;;;;2.92;1.73;;;;;;;22.39;41.96;99047.72;5014600;28;20061;-76
2022/09/09 01:33:11;;;;;;;4.43;1.83;;;;;;;22.39;41.73;99036.25;5013905;28;20492;-75
2022/09/09 01:35:50;;;;;;;2.65;1.50;;;;;;;22.41;41.83;99039.56;4997838;28;20040;-75
2022/09/09 01:38:16;;;;;;;3.17;1.67;;;;;;;22.42;41.83;99035.88;5014232;28;20036;-75
2022/09/09 01:40:41;;;;;;;2.50;1.50;;;;;;;22.40;41.82;99030.72;5014715;28;20033;-75
2022/09/09 01:43:07;;;;;;;3.55;1.70;;;;;;;22.41;41.74;99031.56;5014553;28;20052;-75
2022/09/09 01:45:32;;;;;;;3.65;1.52;;;;;;;22.43;41.51;99028.72;4998016;28;20386;-75
2022/09/09 01:47:58;;;;;;;2.65;1.80;;;;;;;22.43;41.74;99031.38;4997846;28;20033;-75
2022/09/09 01:50:24;;;;;;;3.22;1.60;;;;;;;22.41;41.82;99026.25;5031976;28;20041;-75
2022/09/09 01:52:52;;;;;;;2.88;1.63;;;;;;;22.39;41.57;99026.44;5013924;28;20038;-77
2022/09/09 01:55:19;;;;;;;2.80;1.77;;;;;;;22.40;41.69;99027.25;5014563;28;20029;-77
2022/09/09 01:58:06;;;;;;;3.33;1.57;;;;;;;22.39;41.89;99025.59;5014195;28;20025;-77
2022/09/09 02:00:32;;;;;;;2.03;1.40;;;;;;;22.33;41.94;99013.88;5014751;28;20370;-81
2022/09/09 02:03:01;;;;;;;2.67;1.55;;;;;;;22.38;41.50;99026.63;5014371;28;20029;-83
2022/09/09 02:05:40;;;;;;;5.70;1.65;;;;;;;22.36;41.99;99028.63;4994539;28;20117;-83
2022/09/09 02:08:07;;;;;;;3.38;1.50;;;;;;;22.35;41.95;99025.16;4994682;28;20485;-78
2022/09/09 02:10:43;;;;;;;4.00;1.53;;;;;;;22.29;41.58;99019.72;5012283;28;20129;-78
2022/09/09 02:13:17;;;;;;;3.03;1.58;;;;;;;22.25;41.91;99015.78;5011408;28;20084;-78
2022/09/09 02:16:16;;;;;;;2.42;1.60;;;;;;;22.32;41.98;99027.38;4994799;28;20029;-78
2022/09/09 02:18:47;;;;;;;3.38;1.60;;;;;;;22.31;41.77;99018.56;4958761;28;20042;-80
2022/09/09 02:21:13;;;;;;;2.50;1.50;;;;;;;22.28;41.79;99018.06;4971162;28;20442;-81
2022/09/09 02:23:40;;;;;;;2.08;1.30;;;;;;;22.31;41.81;99028.38;4923025;28;20159;-81
2022/09/09 02:26:07;;;;;;;3.70;1.35;;;;;;;22.31;41.84;99028.38;4939119;28;20062;-79
2022/09/09 02:28:32;;;;;;;2.90;1.60;;;;;;;22.30;42.09;99030.22;4938979;28;20081;-80
2022/09/09 02:30:58;;;;;;;3.40;1.65;;;;;;;22.28;41.96;99026.06;4954917;28;20518;-79
2022/09/09 02:33:26;;;;;;;4.47;1.63;;;;;;;22.22;42.11;99014.34;4955106;28;20117;-80
2022/09/09 02:35:52;;;;;;;2.72;1.65;;;;;;;22.22;42.14;99022.31;4938942;28;20034;-79
2022/09/09 02:38:17;;;;;;;3.67;1.77;;;;;;;22.22;42.17;99019.66;4955990;28;20031;-81
2022/09/09 02:40:43;;;;;;;2.88;1.50;;;;;;;22.22;41.81;99020.47;4958322;28;20031;-80
2022/09/09 02:43:08;;;;;;;2.10;1.40;;;;;;;22.20;42.13;99017.19;4942032;28;20063;-80
2022/09/09 02:46:10;;;;;;;2.55;1.50;;;;;;;22.21;41.99;99018.00;4974134;28;20038;-79
2022/09/09 02:48:40;;;;;;;3.22;1.45;;;;;;;22.19;41.88;99012.06;4916881;29;20492;-80
2022/09/09 02:51:10;;;;;;;2.10;1.50;;;;;;;22.17;42.17;99012.22;4916524;29;20036;-79
2022/09/09 02:54:13;;;;;;;4.68;1.83;;;;;;;22.17;41.90;99022.03;4916888;29;20044;-80
2022/09/09 02:56:41;;;;;;;2.55;1.50;;;;;;;22.14;41.75;99017.91;4954807;29;20499;-77
2022/09/09 02:59:07;;;;;;;3.08;1.48;;;;;;;22.16;41.78;99020.41;4938598;29;20071;-77
2022/09/09 03:01:32;;;;;;;6.55;1.70;;;;;;;22.14;41.89;99017.91;4954651;29;20039;-80
2022/09/09 03:03:58;;;;;;;1.85;1.40;;;;;;;22.13;41.63;99018.09;4938391;29;20039;-79
2022/09/09 03:06:23;;;;;;;2.15;1.30;;;;;;;22.16;41.56;99021.22;4939463;28;20056;-80
2022/09/09 03:08:49;;;;;;;3.00;1.38;;;;;;;22.14;41.86;99019.72;4935204;29;20134;-80
2022/09/09 03:11:15;;;;;;;2.60;1.40;;;;;;;;;;4935133;29;20047;-80
2022/09/09 03:13:40;;;;;;;2.90;1.63;;;;;;;22.12;41.86;99009.28;4919473;29;20028;-81
2022/09/09 03:16:07;;;;;;;4.85;1.70;;;;;;;22.08;42.02;99012.53;4935479;29;20096;-80
2022/09/09 03:18:34;;;;;;;3.22;1.77;;;;;;;22.08;42.03;99013.34;4919213;29;20639;-80
2022/09/09 03:20:59;;;;;;;3.50;1.85;;;;;;;22.07;42.21;99010.88;4919291;29;20044;-80
2022/09/09 03:23:25;;;;;;;2.67;1.52;;;;;;;22.03;42.31;99008.56;4935439;29;20040;-83
2022/09/09 03:25:51;;;;;;;2.80;1.40;;;;;;;22.04;42.27;99012.88;4969170;28;20043;-79
2022/09/09 03:28:17;;;;;;;5.18;1.70;;;;;;;22.05;42.17;99016.38;4977576;28;20092;-80
2022/09/09 03:30:42;;;;;;;3.33;1.55;;;;;;;21.93;42.10;99002.69;4977631;28;20030;-80
2022/09/09 03:33:08;;;;;;;3.88;1.42;;;;;;;21.99;42.06;99020.56;4993797;28;20057;-79
2022/09/09 03:35:33;;;;;;;5.20;1.42;;;;;;;22.01;42.14;99023.03;4977359;28;20046;-78
2022/09/09 03:38:00;;;;;;;2.75;1.50;;;;;;;22.01;42.12;99025.69;4993434;28;20027;-79
2022/09/09 03:40:26;;;;;;;3.58;1.67;;;;;;;21.99;41.94;99020.56;4995787;28;20030;-84
2022/09/09 03:42:51;;;;;;;3.33;1.40;;;;;;;21.98;42.17;99024.25;4977517;28;20048;-84
2022/09/09 03:45:17;;;;;;;2.60;1.50;;;;;;;21.95;42.11;99008.69;4961113;28;20046;-81
2022/09/09 03:47:42;;;;;;;3.33;1.60;;;;;;;22.02;42.19;99024.72;4993885;28;20398;-82
2022/09/09 03:50:09;;;;;;;4.45;1.40;;;;;;;21.99;42.06;99014.44;4994322;28;20034;-86
2022/09/09 03:52:38;;;;;;;2.70;1.40;;;;;;;21.98;42.28;99013.63;4978667;28;20033;-87
2022/09/09 03:55:05;;;;;;;4.00;1.45;;;;;;;22.04;42.11;99020.03;4978291;28;20052;-85
2022/09/09 03:57:31;;;;;;;2.33;1.23;;;;;;;22.07;42.15;99018.84;4995223;28;20026;-86
2022/09/09 03:59:57;;;;;;;2.65;1.40;;;;;;;22.21;41.88;99032.09;4994685;28;20081;-88
2022/09/09 04:02:23;;;;;;;3.83;1.50;;;;;;;22.41;41.41;99031.56;4978814;28;20034;-88
2022/09/09 04:04:49;;;;;;;4.53;1.73;;;;;;;22.65;40.71;99027.75;4982675;28;20038;-80
2022/09/09 04:07:14;;;;;;;2.83;1.40;;;;;;;23.02;40.22;99035.69;5034708;28;20087;-85
2022/09/09 04:09:40;;;;;;;4.43;1.45;;;;;;;23.22;39.46;99026.06;4999959;28;20115;-76
2022/09/09 04:12:06;;;;;;;3.88;1.80;;;;;;;23.44;39.57;99026.88;5033987;28;20041;-75
2022/09/09 04:14:32;;;;;;;5.93;1.88;;;;;;;23.75;38.36;99036.31;5016164;28;20068;-75
2022/09/09 04:16:59;;;;;;;3.13;1.50;;;;;;;24.09;37.86;99041.88;5032557;28;20420;-76
2022/09/09 04:19:24;;;;;;;4.93;1.40;;;;;;;24.44;37.24;99045.31;5016077;28;20112;-76
2022/09/09 04:21:51;;;;;;;9.02;1.85;;;;;;;24.97;37.86;99044.66;5033832;28;20128;-76
2022/09/09 04:24:17;;;;;;;4.70;1.48;;;;;;;25.56;36.08;99050.28;5015684;28;20041;-78
2022/09/09 04:26:42;;;;;;;11.30;1.77;;;;;;;26.09;34.89;99052.03;5015756;28;20064;-75
2022/09/09 04:29:08;;;;;;;8.27;1.50;;;;;;;26.58;34.05;99045.25;5032323;28;20469;-75
2022/09/09 04:31:33;;;;;;;5.93;1.45;;;;;;;27.00;32.90;99034.16;4998815;28;20045;-77
2022/09/09 04:34:02;;;;;;;9.90;1.77;;;;;;;27.54;31.85;99034.56;4999008;28;20045;-79
2022/09/09 04:36:27;;;;;;;5.70;2.10;;;;;;;27.96;31.12;99032.94;4999735;28;20445;-78
2022/09/09 04:38:53;;;;;;;5.32;2.00;;;;;;;28.40;30.35;99038.19;4998364;28;20103;-77
2022/09/09 04:41:18;;;;;;;6.32;2.20;;;;;;;28.81;29.57;99042.03;5015577;28;20065;-76
2022/09/09 04:43:44;;;;;;;8.82;2.08;;;;;;;29.27;30.42;99042.38;5015092;28;20075;-76
2022/09/09 04:46:10;;;;;;;4.82;2.20;;;;;;;30.11;28.54;99041.34;5032960;28;20065;-74
2022/09/09 04:48:35;;;;;;;10.43;2.60;;;;;;;30.64;26.98;99048.31;5015472;28;20029;-78
2022/09/09 04:51:03;;;;;;;8.55;2.50;;;;;;;31.20;26.43;99037.72;5015357;28;20409;-79
2022/09/09 04:53:29;;;;;;;6.43;2.72;;;;;;;31.73;25.66;99034.75;5031948;28;20029;-77
2022/09/09 04:56:05;;;;;;;4.75;2.47;;;;;;;32.19;24.78;99035.38;5031855;28;20025;-78
2022/09/09 04:58:31;;;;;;;6.32;3.05;;;;;;;32.61;24.10;99037.47;5012849;28;20026;-79
2022/09/09 05:01:04;;;;;;;7.65;3.30;;;;;;;33.10;23.50;99031.22;4996549;28;20040;-80
2022/09/09 05:03:29;;;;;;;8.75;3.83;;;;;;;33.47;23.13;99029.59;5014783;28;20034;-77
2022/09/09 05:06:11;;;;;;;7.13;4.43;;;;;;;33.81;22.76;99016.59;5014946;28;20535;-78
2022/09/09 05:08:37;;;;;;;11.77;4.97;;;;;;;34.28;22.37;99022.22;5032691;28;20029;-77
2022/09/09 05:11:04;;;;;;;11.43;6.32;;;;;;;34.56;22.23;99031.78;5015150;28;20033;-78
2022/09/09 05:13:31;;;;;;;12.07;6.00;;;;;;;34.83;21.74;99036.19;5014918;28;20120;-78
2022/09/09 05:15:56;;;;;;;11.00;5.65;;;;;;;35.07;21.47;99039.16;5031628;28;20034;-78
2022/09/09 05:18:22;;;;;;;11.35;5.50;;;;;;;35.38;21.12;99026.44;4998802;28;20037;-77
2022/09/09 05:20:51;;;;;;;11.57;5.10;;;;;;;35.68;20.75;99022.03;5031474;28;20034;-76
2022/09/09 05:23:16;;;;;;;10.88;4.50;;;;;;;36.00;20.21;99023.56;4998122;28;20041;-77
2022/09/09 05:25:42;;;;;;;23.35;4.03;;;;;;;36.26;20.11;99021.56;5014899;28;20477;-78
2022/09/09 05:28:07;;;;;;;9.88;3.75;;;;;;;36.46;19.63;99028.81;4998478;28;20075;-78
2022/09/09 05:30:33;;;;;;;8.55;3.20;;;;;;;36.60;19.86;99033.63;5014864;28;20022;-77
2022/09/09 05:32:59;;;;;;;9.60;3.40;;;;;;;36.83;19.67;99032.97;5032190;28;20041;-79
2022/09/09 05:35:25;;;;;;;8.52;2.97;;;;;;;37.01;19.04;99027.91;5013690;28;20382;-79
2022/09/09 05:37:50;;;;;;;8.95;2.83;;;;;;;37.24;18.66;99029.94;4998175;28;20032;-76
2022/09/09 05:40:16;;;;;;;7.40;2.60;;;;;;;37.40;18.70;99036.03;4998052;28;20038;-79
2022/09/09 05:42:41;;;;;;;4.80;2.50;;;;;;;37.59;18.15;99027.09;4998261;28;20413;-76
2022/09/09 05:45:08;;;;;;;6.07;2.20;;;;;;;37.68;17.96;99028.09;5014733;28;20485;-78
2022/09/09 05:47:34;;;;;;;12.70;2.40;;;;;;;37.83;17.96;99024.44;5014796;28;20029;-82
2022/09/09 05:49:59;;;;;;;6.50;2.60;;;;;;;37.98;17.94;99034.31;4997579;28;20080;-79
2022/09/09 05:52:26;;;;;;;3.97;2.20;;;;;;;38.06;18.48;99024.69;5032168;28;20044;-77
2022/09/09 05:54:54;;;;;;;7.60;1.80;;;;;;;38.17;17.49;99037.13;5031075;28;20032;-76
2022/09/09 05:57:19;;;;;;;9.32;1.95;;;;;;;38.27;17.97;99037.00;5032336;28;20042;-78
2022/09/09 05:59:45;;;;;;;6.57;1.70;;;;;;;38.29;17.88;99034.78;5014630;28;20032;-78
2022/09/09 06:02:12;;;;;;;8.07;1.90;;;;;;;38.41;18.02;99044.44;5014651;28;20560;-77
2022/09/09 06:04:38;;;;;;;6.28;1.70;;;;;;;38.50;17.84;99042.69;5014089;28;20050;-76
2022/09/09 06:07:04;;;;;;;5.45;1.70;;;;;;;38.60;17.86;99045.25;5014247;28;20044;-77
2022/09/09 06:09:30;;;;;;;9.68;2.03;;;;;;;38.66;17.30;99033.19;5014305;28;20026;-78
2022/09/09 06:11:57;;;;;;;7.90;2.05;;;;;;;38.76;17.21;99039.59;5014542;28;20478;-79
2022/09/09 06:14:23;;;;;;;10.63;3.45;;;;;;;38.78;17.19;99035.47;5034128;28;20061;-78
2022/09/09 06:16:48;;;;;;;7.88;2.10;;;;;;;38.80;16.95;99043.34;5018059;28;20481;-78
2022/09/09 06:19:14;;;;;;;6.25;1.70;;;;;;;38.82;16.84;99041.13;5018328;28;20025;-78
2022/09/09 06:21:40;;;;;;;24.25;6.45;;;;;;;38.78;18.18;99032.75;5002348;28;20037;-82
2022/09/09 06:24:07;;;;;;;32.27;7.80;;;;;;;38.73;18.92;99039.09;5003800;28;20049;-84
2022/09/09 06:26:34;;;;;;;27.83;9.18;;;;;;;38.65;19.04;99047.13;4985040;28;20026;-85
2022/09/09 06:28:59;;;;;;;33.72;9.02;;;;;;;38.62;18.32;99044.97;4984797;28;20033;-83
2022/09/09 06:31:28;;;;;;;34.67;9.70;;;;;;;38.52;19.03;99046.75;4985638;28;20037;-85
2022/09/09 06:33:54;;;;;;;35.05;8.43;;;;;;;38.48;18.56;99044.91;5002234;28;20029;-81
2022/09/09 06:36:27;;;;;;;29.92;8.35;;;;;;;38.32;18.69;99045.09;5019394;28;20123;-83
2022/09/09 06:38:52;;;;;;;27.15;8.75;;;;;;;38.12;19.14;99032.50;5018912;28;20037;-83
2022/09/09 06:41:22;;;;;;;23.05;7.70;;;;;;;37.97;19.26;99036.25;5001899;28;20150;-85
2022/09/09 06:43:47;;;;;;;32.25;7.97;;;;;;;37.88;19.35;99040.72;5002673;28;20144;-81
2022/09/09 06:46:14;;;;;;;24.63;7.22;;;;;;;37.79;19.24;99045.19;5001348;28;20177;-77
2022/09/09 06:48:44;;;;;;;22.35;6.70;;;;;;;37.62;19.79;99045.59;5035764;28;20044;-81
2022/09/09 06:51:11;;;;;;;19.08;6.05;;;;;;;37.54;19.69;99044.31;4986016;28;20131;-84
2022/09/09 06:53:37;;;;;;;20.80;5.80;;;;;;;37.43;19.72;99048.25;5017815;28;20029;-90
2022/09/09 06:56:22;;;;;;;15.93;5.50;;;;;;;37.36;20.25;99050.50;5035560;28;20168;-83
2022/09/09 06:58:49;;;;;;;17.98;5.82;;;;;;;37.27;20.30;99040.25;5004266;28;20030;-87
2022/09/09 07:01:16;;;;;;;22.27;5.05;;;;;;;37.19;20.28;99050.88;5000832;28;20064;-86
2022/09/09 07:03:42;;;;;;;12.80;4.07;;;;;;;37.16;20.23;99054.97;5035388;28;20025;-81
2022/09/09 07:06:14;;;;;;;16.50;4.40;;;;;;;37.12;20.40;99051.22;4978050;28;20064;-79
2022/09/09 07:08:40;;;;;;;18.13;3.53;;;;;;;37.07;20.52;99048.56;4994435;28;20113;-80
2022/09/09 07:11:07;;;;;;;10.98;3.85;;;;;;;37.04;20.46;99043.69;4994496;28;20038;-80
2022/09/09 07:13:33;;;;;;;15.30;3.78;;;;;;;36.98;20.93;99039.38;4994267;28;20031;-81
2022/09/09 07:16:05;;;;;;;8.68;3.00;;;;;;;37.02;20.24;99043.97;4978021;28;20045;-82
2022/09/09 07:18:31;;;;;;;12.50;3.20;;;;;;;36.99;21.01;99041.81;5010423;28;20026;-86
2022/09/09 07:20:57;;;;;;;11.40;2.92;;;;;;;36.98;20.60;99039.38;4994836;28;20521;-84
2022/09/09 07:23:23;;;;;;;12.25;2.83;;;;;;;36.91;20.78;99045.94;4994144;28;20031;-80
2022/09/09 07:25:50;;;;;;;11.27;2.53;;;;;;;36.96;20.44;99046.97;4993042;28;20031;-79
2022/09/09 07:28:16;;;;;;;11.38;2.70;;;;;;;36.92;20.02;99041.31;4992905;28;20819;-80
2022/09/09 07:30:42;;;;;;;8.85;2.20;;;;;;;36.87;20.45;99041.34;4992756;28;20099;-79
2022/09/09 07:33:09;;;;;;;15.43;2.63;;;;;;;36.86;20.49;99037.84;4993868;28;20030;-79
2022/09/09 07:35:36;;;;;;;11.32;2.05;;;;;;;36.89;20.52;99039.16;5010132;28;20031;-84
2022/09/09 07:38:02;;;;;;;;;;;;;;;36.78;20.18;99041.13;5010643;28;20034;-83
2022/09/09 07:40:28;;;;;;;5.65;1.60;;;;;;;36.78;20.07;99032.16;4993907;28;19918;-83
2022/09/09 07:42:53;;;;;;;4.20;1.85;;;;;;;36.78;20.69;99041.13;4993580;28;20454;-87
2022/09/09 07:45:19;;;;;;;8.85;1.58;;;;;;;36.78;21.00;99032.97;4993913;28;20046;-85
2022/09/09 07:47:44;;;;;;;7.95;1.67;;;;;;;36.92;20.51;99057.63;4977244;28;20517;-85
2022/09/09 07:50:10;;;;;;;3.97;1.55;;;;;;;37.00;20.52;99054.28;4993594;28;20050;-86
2022/09/09 07:52:36;;;;;;;10.35;1.60;;;;;;;36.99;19.90;99062.75;4995311;28;20395;-86
2022/09/09 07:55:02;;;;;;;5.22;1.23;;;;;;;36.79;20.36;99067.25;4995900;28;20042;-80
2022/09/09 07:57:31;;;;;;;29.35;8.07;;;;;;;36.79;21.59;99066.44;5000694;28;20551;-91
2022/09/09 07:59:57;;;;;;;12.73;3.50;;;;;;;37.03;20.85;99069.25;4977498;28;20046;-86
2022/09/09 08:02:23;;;;;;;10.57;3.35;;;;;;;37.31;20.73;99062.25;4993199;28;20572;-81
2022/09/09 08:04:50;;;;;;;9.43;2.63;;;;;;;37.62;20.42;99064.66;5003674;28;20035;-92
2022/09/09 08:07:17;;;;;;;6.25;1.65;;;;;;;37.85;19.30;99057.66;5025772;28;20096;-92
2022/09/09 08:09:43;;;;;;;9.70;1.95;;;;;;;38.07;19.46;99053.59;5007572;28;20168;-92
2022/09/09 08:12:09;;;;;;;6.80;1.65;;;;;;;38.22;19.27;99067.03;4987013;28;20038;-89
2022/09/09 08:14:35;;;;;;;6.28;1.38;;;;;;;38.35;18.78;99055.41;5017338;28;20029;-87
2022/09/09 08:17:01;;;;;;;5.15;1.60;;;;;;;38.51;18.78;99057.94;5017713;28;20492;-87
2022/09/09 08:19:29;;;;;;;5.43;1.63;;;;;;;38.71;18.98;99059.56;5017633;28;20083;-88
2022/09/09 08:21:55;;;;;;;5.45;1.45;;;;;;;38.89;18.70;99056.03;5003004;28;20045;-88
2022/09/09 08:24:20;;;;;;;3.42;1.52;;;;;;;39.02;18.42;99043.53;4988009;28;20068;-91
2022/09/09 08:26:48;;;;;;;5.50;1.73;;;;;;;39.17;18.03;99041.69;5001473;28;20511;-86
2022/09/09 08:29:14;;;;;;;7.60;2.00;;;;;;;39.29;18.20;99039.28;5017260;28;20029;-89
2022/09/09 08:31:43;;;;;;;10.63;2.33;;;;;;;39.39;17.41;99028.16;4984229;28;20108;-85
2022/09/09 08:34:10;;;;;;;8.63;2.00;;;;;;;39.48;17.40;99032.97;4983883;28;20037;-85
2022/09/09 08:36:45;;;;;;;7.60;1.80;;;;;;;39.56;17.37;99040.47;5019566;28;20104;-85
2022/09/09 08:39:12;;;;;;;5.50;1.65;;;;;;;39.60;17.26;99034.09;5020674;28;20092;-88
2022/09/09 08:42:02;;;;;;;7.07;1.70;;;;;;;39.55;16.89;99023.28;4990813;28;20026;-89
2022/09/09 08:44:34;;;;;;;6.68;1.90;;;;;;;39.48;17.17;99020.09;5015621;28;20447;-79
2022/09/09 08:47:38;;;;;;;6.95;1.83;;;;;;;39.47;17.38;99013.00;5015105;28;20052;-80
2022/09/09 08:50:31;;;;;;;11.43;2.05;;;;;;;39.49;17.33;99010.81;5014813;28;20147;-80
2022/09/09 08:53:35;;;;;;;7.47;2.05;;;;;;;39.40;17.58;99016.16;5000191;28;20477;-80
2022/09/09 08:56:03;;;;;;;6.22;1.90;;;;;;;39.19;17.51;99013.00;4991699;28;20042;-81
2022/09/09 08:58:30;;;;;;;4.28;1.63;;;;;;;39.02;18.34;98999.88;4991178;28;20048;-80
2022/09/09 09:01:17;;;;;;;6.93;2.10;;;;;;;39.04;18.50;99005.03;4958803;28;20514;-79
2022/09/09 09:04:04;;;;;;;5.28;1.70;;;;;;;38.93;18.49;98996.19;4975233;28;20030;-80
2022/09/09 09:06:39;;;;;;;8.95;1.65;;;;;;;38.92;18.46;98989.16;4974900;28;20085;-81
2022/09/09 09:09:07;;;;;;;4.20;1.80;;;;;;;38.86;18.44;98987.59;4975642;28;20034;-80
2022/09/09 09:11:43;;;;;;;4.10;1.33;;;;;;;38.78;18.33;98980.91;4974912;28;20042;-80
2022/09/09 09:14:23;;;;;;;3.63;1.60;;;;;;;38.74;18.44;98993.50;4974824;28;20038;-81
2022/09/09 09:17:03;;;;;;;5.18;1.42;;;;;;;38.62;18.71;98983.06;4991350;28;20490;-81
2022/09/09 09:19:29;;;;;;;6.20;1.35;;;;;;;38.55;18.64;98982.59;4974610;28;20039;-81
2022/09/09 09:22:26;;;;;;;4.38;1.40;;;;;;;38.35;18.64;98984.53;4958854;28;20528;-80
2022/09/09 09:25:10;;;;;;;4.65;1.35;;;;;;;38.21;19.12;98977.38;4975822;28;20106;-80
2022/09/09 09:28:00;;;;;;;5.68;1.58;;;;;;;38.16;19.01;98978.25;4991035;28;20041;-77
2022/09/09 09:30:29;;;;;;;8.43;1.40;;;;;;;38.09;19.67;98975.06;4991394;28;20088;-79
2022/09/09 09:33:03;;;;;;;5.00;1.40;;;;;;;38.10;19.82;98972.06;4998785;28;20529;-80
2022/09/09 09:35:28;;;;;;;4.03;1.25;;;;;;;38.09;20.03;98973.16;4998867;28;20022;-80
2022/09/09 09:37:54;;;;;;;3.38;1.60;;;;;;;38.12;19.93;98975.28;4998054;28;20029;-81
2022/09/09 09:40:21;;;;;;;7.57;1.23;;;;;;;38.11;19.64;98961.94;4982062;28;20091;-79
2022/09/09 09:43:08;;;;;;;4.35;1.13;;;;;;;38.01;19.74;98974.59;4998283;28;20048;-80
2022/09/09 09:45:41;;;;;;;2.90;1.20;;;;;;;37.91;19.85;98963.84;4983037;28;20057;-86
2022/09/09 09:48:09;;;;;;;5.80;1.60;;;;;;;37.81;19.79;98963.97;4989753;28;20030;-92
2022/09/09 09:50:35;;;;;;;4.03;1.30;;;;;;;37.80;19.75;98968.63;5023080;28;20091;-85
2022/09/09 09:53:03;;;;;;;3.28;1.50;;;;;;;37.74;20.27;98955.38;5002681;28;20029;-86
2022/09/09 09:55:30;;;;;;;4.50;1.40;;;;;;;37.69;20.16;98967.13;5002815;28;20029;-85
2022/09/09 09:58:06;;;;;;;8.90;1.55;;;;;;;37.63;20.16;98958.16;5018936;28;20025;-84
2022/09/09 10:00:32;;;;;;;3.10;1.20;;;;;;;37.57;20.08;98953.88;4986534;28;20135;-85
2022/09/09 10:02:59;;;;;;;4.53;1.48;;;;;;;37.52;20.05;98948.50;5017155;28;20049;-84
2022/09/09 10:05:29;;;;;;;5.30;2.17;;;;;;;37.37;20.25;98948.66;5002660;28;20459;-85
2022/09/09 10:08:19;;;;;;;3.92;1.60;;;;;;;37.25;20.72;98943.63;4986401;28;20037;-85
2022/09/09 10:11:23;;;;;;;3.50;1.40;;;;;;;37.07;21.27;98939.72;5019691;28;20033;-86
2022/09/09 10:14:10;;;;;;;5.00;1.48;;;;;;;36.98;21.69;98939.50;5018806;28;20084;-85
2022/09/09 10:17:00;;;;;;;5.95;1.40;;;;;;;36.74;21.76;98934.84;5036693;28;20032;-85
2022/09/09 10:19:28;;;;;;;3.20;1.75;;;;;;;36.72;21.81;98938.88;5034954;28;20021;-84
2022/09/09 10:22:19;;;;;;;4.38;1.80;;;;;;;36.66;21.96;98935.41;5018364;28;20451;-86
2022/09/09 10:25:02;;;;;;;8.05;1.60;;;;;;;36.61;22.21;98931.91;5017910;28;20033;-83
2022/09/09 10:27:53;;;;;;;3.47;1.70;;;;;;;36.49;21.54;98930.38;5036696;28;20128;-85
2022/09/09 10:31:24;;;;;;;7.85;1.90;;;;;;;36.37;21.70;98929.91;5017615;28;20029;-83
2022/09/09 10:33:50;;;;;;;5.80;1.98;;;;;;;36.28;22.16;98921.56;4898121;29;20500;-85
2022/09/09 10:36:24;;;;;;;6.95;2.05;;;;;;;36.13;22.11;98917.00;4882441;29;20575;-85
2022/09/09 10:39:15;;;;;;;7.97;1.98;;;;;;;35.90;22.04;98910.38;4897905;29;20051;-85
2022/09/09 10:42:09;;;;;;;8.18;2.05;;;;;;;35.76;21.83;98909.34;4882663;29;20044;-85
2022/09/09 10:45:06;;;;;;;8.93;2.20;;;;;;;35.67;22.02;98909.88;4879683;29;20052;-84
2022/09/09 10:47:52;;;;;;;7.35;1.70;;;;;;;35.55;22.55;98900.44;4842015;29;20042;-83
2022/09/09 10:50:55;;;;;;;6.78;2.20;;;;;;;35.44;22.82;98905.09;4842031;29;20050;-87
2022/09/09 10:53:57;;;;;;;8.63;1.83;;;;;;;35.23;22.93;98896.97;4772961;30;20063;-83
2022/09/09 10:56:25;;;;;;;5.55;1.45;;;;;;;35.03;24.27;98897.03;4791713;30;20048;-90
2022/09/09 10:59:12;;;;;;;4.50;1.65;;;;;;;34.86;24.20;98898.16;4796671;29;20096;-82
2022/09/09 11:01:43;;;;;;;6.32;2.30;;;;;;;34.53;23.88;98885.94;4788483;30;20052;-85
2022/09/09 11:04:49;;;;;;;5.93;1.83;;;;;;;34.27;24.75;98894.06;4787409;30;20050;-86
2022/09/09 11:07:23;;;;;;;5.32;1.90;;;;;;;34.13;24.84;98877.50;4753454;30;20052;-89
2022/09/09 11:09:51;;;;;;;8.68;1.77;;;;;;;33.93;24.96;98872.84;4778412;29;20519;-89
2022/09/09 11:12:19;;;;;;;7.85;1.90;;;;;;;33.79;24.81;98875.25;4788346;29;20115;-88
2022/09/09 11:14:45;;;;;;;;;;;;;;;33.66;24.80;98871.13;4791089;30;20148;-90
2022/09/09 11:17:16;;;;;;;7.40;2.20;;;;;;;33.51;25.02;98863.75;4792974;30;20374;-90
2022/09/09 11:19:43;;;;;;;5.53;2.30;;;;;;;33.33;24.03;98854.19;4792168;29;20032;-86
2022/09/09 11:22:34;;;;;;;3.70;1.80;;;;;;;33.16;25.38;98853.56;4814952;29;20038;-85
2022/09/09 11:25:15;;;;;;;7.53;2.15;;;;;;;32.93;25.18;98868.31;4862972;29;20101;-83
2022/09/09 11:28:00;;;;;;;33.33;3.13;;;;;;;32.71;25.87;98857.63;4879290;29;20052;-84
2022/09/09 11:30:43;;;;;;;10.85;2.20;;;;;;;32.57;26.39;98859.91;4938433;29;20531;-82
2022/09/09 11:33:16;;;;;;;7.30;2.08;;;;;;;32.41;25.92;98854.38;4954474;29;20035;-82
2022/09/09 11:35:53;;;;;;;11.07;2.60;;;;;;;32.34;26.92;98855.66;4938247;29;20120;-82
2022/09/09 11:38:21;;;;;;;;;;;;;;;32.25;26.90;98845.34;4954232;29;20086;-82
2022/09/09 11:40:47;;;;;;;6.22;2.15;;;;;;;32.12;27.08;98836.84;4979440;28;19913;-84
2022/09/09 11:43:14;;;;;;;7.13;2.25;;;;;;;32.04;27.40;98835.38;5016909;28;20407;-82
2022/09/09 11:45:41;;;;;;;6.97;2.17;;;;;;;31.95;27.11;98836.94;5016709;28;20037;-84
2022/09/09 11:48:31;;;;;;;7.77;2.30;;;;;;;31.84;26.93;98831.41;5033751;28;20017;-83
2022/09/09 11:51:20;;;;;;;5.43;2.22;;;;;;;31.83;27.43;98839.75;5001763;28;20034;-82
2022/09/09 11:53:53;;;;;;;5.85;2.42;;;;;;;31.72;27.38;98836.13;5000118;28;20049;-80
2022/09/09 11:56:33;;;;;;;3.63;2.13;;;;;;;31.59;27.44;98817.66;4983807;28;20033;-85